createdAt,value
2023-03-13T00:01:40.757Z,1.00
2023-03-13T00:04:09.816Z,1.25
2023-03-13T00:06:40.337Z,1.57
2023-03-13T00:09:11.515Z,1.30
2023-03-13T00:11:42.933Z,10.77
2023-03-13T00:14:11.674Z,9.98
2023-03-13T00:16:40.760Z,5.07
2023-03-13T00:19:10.284Z,3.15
2023-03-13T00:21:41.378Z,8.40
2023-03-13T00:24:11.891Z,3.20
2023-03-13T00:26:45.029Z,3.05
2023-03-13T00:29:13.639Z,1.65
2023-03-13T00:31:43.266Z,2.20
2023-03-13T00:34:12.375Z,1.38
2023-03-13T00:36:40.928Z,1.17
2023-03-13T00:39:09.561Z,0.93
2023-03-13T00:41:39.048Z,1.35
2023-03-13T00:44:09.476Z,2.00
2023-03-13T00:46:39.072Z,0.75
2023-03-13T00:49:07.904Z,0.70
2023-03-13T00:51:36.743Z,0.90
2023-03-13T00:54:05.458Z,1.00
2023-03-13T00:56:35.363Z,1.05
2023-03-13T00:59:04.098Z,1.30
2023-03-13T01:01:35.504Z,1.75
2023-03-13T01:04:06.664Z,1.20
2023-03-13T01:06:37.974Z,1.73
2023-03-13T01:09:08.623Z,1.75
2023-03-13T01:11:40.051Z,1.90
2023-03-13T01:14:11.653Z,2.25
2023-03-13T01:16:42.294Z,2.20
2023-03-13T01:19:13.667Z,2.45
2023-03-13T01:21:43.511Z,2.25
2023-03-13T01:26:40.665Z,1.80
2023-03-13T01:29:09.377Z,2.25
2023-03-13T01:31:38.688Z,3.38
2023-03-13T01:34:12.232Z,1.90
2023-03-13T01:36:40.882Z,1.40
2023-03-13T01:39:09.495Z,1.38
2023-03-13T01:41:39.608Z,0.90
2023-03-13T01:44:19.785Z,1.77
2023-03-13T01:46:48.682Z,1.30
2023-03-13T01:49:38.900Z,1.50
2023-03-13T01:52:32.182Z,1.73
2023-03-13T01:55:18.275Z,0.80
2023-03-13T01:57:53.236Z,1.73
2023-03-13T02:00:25.756Z,1.25
2023-03-13T02:02:58.073Z,1.60
2023-03-13T02:05:32.041Z,1.23
2023-03-13T02:08:04.486Z,1.25
2023-03-13T02:10:36.279Z,1.30
2023-03-13T02:13:05.511Z,1.50
2023-03-13T02:15:35.629Z,2.03
2023-03-13T02:18:04.288Z,2.22
2023-03-13T02:20:34.330Z,1.88
2023-03-13T02:23:08.762Z,1.77
2023-03-13T02:25:45.863Z,2.40
2023-03-13T02:28:20.871Z,2.53
2023-03-13T02:30:52.675Z,2.50
2023-03-13T02:33:22.065Z,3.63
2023-03-13T02:38:25.285Z,3.53
2023-03-13T02:40:56.997Z,3.55
2023-03-13T02:43:31.145Z,3.95
2023-03-13T02:46:09.629Z,5.00
2023-03-13T02:48:44.092Z,4.47
2023-03-13T02:51:18.563Z,5.63
2023-03-13T02:53:50.178Z,5.75
2023-03-13T02:56:23.981Z,4.63
2023-03-13T02:58:52.741Z,3.97
2023-03-13T03:01:25.346Z,3.60
2023-03-13T03:03:54.194Z,3.05
2023-03-13T03:06:22.721Z,2.90
2023-03-13T03:08:52.199Z,2.72
2023-03-13T03:11:22.297Z,2.85
2023-03-13T03:13:57.135Z,3.17
2023-03-13T03:16:26.899Z,3.33
2023-03-13T03:18:55.468Z,3.13
2023-03-13T03:21:24.773Z,2.38
2023-03-13T03:26:23.786Z,1.95
2023-03-13T03:28:52.778Z,1.20
2023-03-13T03:31:21.692Z,1.67
2023-03-13T03:33:50.459Z,1.73
2023-03-13T03:36:22.290Z,2.08
2023-03-13T03:38:52.046Z,1.80
2023-03-13T03:41:27.092Z,2.00
2023-03-13T03:43:56.944Z,1.60
2023-03-13T03:46:30.209Z,2.10
2023-03-13T03:48:58.932Z,5.22
2023-03-13T03:51:27.841Z,2.83
2023-03-13T03:53:56.530Z,4.55
2023-03-13T03:56:26.789Z,3.30
2023-03-13T03:58:58.394Z,3.53
2023-03-13T04:01:37.749Z,2.65
2023-03-13T04:04:07.358Z,1.92
2023-03-13T04:06:35.912Z,1.98
2023-03-13T04:09:06.341Z,4.65
2023-03-13T04:11:38.376Z,2.80
2023-03-13T04:14:08.560Z,2.10
2023-03-13T04:16:37.818Z,2.80
2023-03-13T04:19:07.616Z,2.67
2023-03-13T04:21:38.198Z,2.33
2023-03-13T04:24:11.487Z,2.15
2023-03-13T04:26:44.133Z,2.30
2023-03-13T04:29:13.311Z,2.13
2023-03-13T04:32:11.122Z,2.22
2023-03-13T04:34:58.167Z,2.03
2023-03-13T04:37:41.185Z,2.22
2023-03-13T04:40:30.124Z,2.75
2023-03-13T04:43:29.405Z,2.38
2023-03-13T04:46:10.387Z,1.95
2023-03-13T04:49:09.111Z,2.10
2023-03-13T04:51:53.464Z,2.30
2023-03-13T04:54:42.286Z,2.70
2023-03-13T04:57:21.116Z,1.83
2023-03-13T04:59:57.172Z,2.17
2023-03-13T05:02:41.702Z,2.30
2023-03-13T05:05:13.101Z,1.95
2023-03-13T05:07:51.071Z,2.20
2023-03-13T05:10:28.709Z,1.50
2023-03-13T05:13:18.758Z,1.90
2023-03-13T05:16:07.580Z,1.92
2023-03-13T05:18:56.160Z,1.45
2023-03-13T05:21:43.605Z,1.80
2023-03-13T05:24:27.356Z,2.20
2023-03-13T05:27:14.974Z,2.10
2023-03-13T05:30:10.251Z,2.50
2023-03-13T05:32:56.791Z,2.78
2023-03-13T05:35:44.597Z,2.72
2023-03-13T05:38:25.157Z,3.97
2023-03-13T05:41:12.374Z,4.00
2023-03-13T05:44:00.308Z,4.32
2023-03-13T05:46:39.205Z,2.80
2023-03-13T05:49:41.617Z,3.08
2023-03-13T05:52:20.978Z,4.05
2023-03-13T05:55:19.383Z,3.25
2023-03-13T05:58:07.029Z,2.95
2023-03-13T06:00:50.145Z,2.85
2023-03-13T06:03:42.255Z,3.35
2023-03-13T06:06:13.883Z,5.28
2023-03-13T06:08:49.095Z,3.83
2023-03-13T06:11:17.927Z,2.73
2023-03-13T06:13:46.967Z,2.30
2023-03-13T06:16:42.113Z,1.60
2023-03-13T06:19:19.654Z,1.50
2023-03-13T06:21:49.886Z,1.30
2023-03-13T06:24:18.629Z,2.17
2023-03-13T06:26:49.766Z,1.40
2023-03-13T06:29:19.023Z,1.70
2023-03-13T06:31:47.731Z,1.40
2023-03-13T06:34:16.670Z,2.63
2023-03-13T06:36:45.495Z,1.70
2023-03-13T06:39:15.550Z,1.27
2023-03-13T06:41:44.295Z,1.85
2023-03-13T06:44:12.969Z,2.22
2023-03-13T06:46:41.687Z,2.65
2023-03-13T06:49:10.311Z,1.73
2023-03-13T06:51:38.984Z,2.33
2023-03-13T06:54:07.577Z,2.10
2023-03-13T06:56:37.758Z,2.47
2023-03-13T06:59:06.478Z,3.22
2023-03-13T07:01:35.052Z,2.92
2023-03-13T07:04:03.864Z,2.13
2023-03-13T07:06:32.681Z,2.57
2023-03-13T07:09:01.605Z,3.22
2023-03-13T07:11:30.197Z,4.07
2023-03-13T07:14:15.335Z,1.80
2023-03-13T07:16:45.384Z,2.17
2023-03-13T07:19:14.471Z,2.90
2023-03-13T07:21:44.436Z,2.67
2023-03-13T07:24:14.703Z,3.72
2023-03-13T07:26:57.948Z,2.63
2023-03-13T07:29:33.518Z,5.97
2023-03-13T07:32:02.275Z,10.10
2023-03-13T07:34:33.330Z,5.13
2023-03-13T07:37:02.710Z,8.57
2023-03-13T07:39:31.394Z,4.30
2023-03-13T07:42:00.058Z,2.80
2023-03-13T07:44:28.661Z,2.50
2023-03-13T07:47:01.512Z,5.07
2023-03-13T07:49:31.833Z,11.93
2023-03-13T07:52:01.194Z,2.97
2023-03-13T07:54:29.943Z,4.07
2023-03-13T07:56:58.994Z,2.10
2023-03-13T07:59:27.657Z,2.08
2023-03-13T08:01:57.973Z,2.60
2023-03-13T08:04:26.784Z,2.10
2023-03-13T08:06:55.544Z,2.22
2023-03-13T08:09:24.632Z,2.20
2023-03-13T08:11:53.227Z,2.78
2023-03-13T08:14:21.840Z,3.38
2023-03-13T08:16:50.489Z,2.20
2023-03-13T08:19:20.604Z,2.50
2023-03-13T08:21:49.375Z,2.50
2023-03-13T08:24:18.227Z,2.33
2023-03-13T08:26:46.954Z,2.73
2023-03-13T08:29:16.199Z,2.30
2023-03-13T08:31:47.691Z,2.10
2023-03-13T08:34:17.121Z,2.88
2023-03-13T08:36:47.376Z,2.05
2023-03-13T08:39:17.654Z,26.50
2023-03-13T08:41:46.746Z,7.55
2023-03-13T08:44:17.724Z,7.88
2023-03-13T08:46:49.377Z,17.27
2023-03-13T08:49:18.753Z,3.97
2023-03-13T08:51:48.757Z,6.00
2023-03-13T08:54:17.393Z,3.90
2023-03-13T08:56:46.803Z,3.47
2023-03-13T08:59:17.166Z,3.92
2023-03-13T09:01:50.056Z,3.13
2023-03-13T09:04:19.163Z,3.10
2023-03-13T09:06:49.372Z,3.95
2023-03-13T09:09:17.945Z,3.72
2023-03-13T09:11:50.293Z,5.75
2023-03-13T09:14:19.372Z,4.85
2023-03-13T09:16:48.353Z,3.67
2023-03-13T09:19:19.375Z,3.35
2023-03-13T09:21:51.561Z,2.30
2023-03-13T09:24:20.372Z,2.35
2023-03-13T09:27:00.451Z,7.80
2023-03-13T09:29:29.793Z,3.53
2023-03-13T09:31:58.362Z,3.20
2023-03-13T09:34:27.895Z,2.53
2023-03-13T09:36:57.939Z,2.50
2023-03-13T09:39:26.633Z,4.15
2023-03-13T09:42:01.559Z,2.88
2023-03-13T09:44:34.863Z,3.25
2023-03-13T09:47:07.376Z,2.25
2023-03-13T09:49:39.246Z,2.65
2023-03-13T09:52:17.665Z,2.28
2023-03-13T09:54:51.297Z,3.00
2023-03-13T09:57:30.035Z,2.90
2023-03-13T10:00:01.877Z,2.97
2023-03-13T10:02:34.146Z,3.05
2023-03-13T10:05:11.701Z,2.40
2023-03-13T10:07:41.709Z,2.50
2023-03-13T10:10:16.557Z,2.70
2023-03-13T10:12:47.904Z,9.15
2023-03-13T10:15:35.835Z,19.63
2023-03-13T10:18:16.039Z,3.05
2023-03-13T10:20:46.983Z,3.67
2023-03-13T10:23:22.749Z,3.15
2023-03-13T10:25:51.453Z,2.60
2023-03-13T10:28:22.728Z,2.08
2023-03-13T10:30:54.503Z,2.60
2023-03-13T10:33:28.164Z,2.95
2023-03-13T10:36:09.082Z,15.15
2023-03-13T10:38:48.557Z,7.07
2023-03-13T10:41:26.856Z,2.00
2023-03-13T10:43:57.155Z,5.85
2023-03-13T10:46:28.387Z,3.28
2023-03-13T10:48:58.026Z,2.13
2023-03-13T10:51:35.976Z,2.67
2023-03-13T10:54:17.250Z,3.05
2023-03-13T10:56:45.939Z,2.25
2023-03-13T10:59:24.380Z,2.20
2023-03-13T11:01:54.164Z,2.70
2023-03-13T11:07:03.213Z,2.88
2023-03-13T11:09:33.941Z,3.78
2023-03-13T11:12:08.397Z,2.58
2023-03-13T11:14:37.294Z,2.10
2023-03-13T11:17:14.598Z,3.95
2023-03-13T11:19:55.267Z,4.05
2023-03-13T11:22:32.125Z,3.22
2023-03-13T11:25:18.958Z,3.47
2023-03-13T11:27:56.080Z,9.77
2023-03-13T11:30:50.302Z,9.57
2023-03-13T11:33:29.665Z,5.95
2023-03-13T11:36:04.991Z,22.02
2023-03-13T11:38:37.656Z,4.63
2023-03-13T11:41:23.991Z,4.55
2023-03-13T11:44:07.866Z,11.30
2023-03-13T11:46:47.565Z,4.72
2023-03-13T11:52:20.798Z,7.00
2023-03-13T11:55:04.751Z,7.20
2023-03-13T11:57:42.140Z,5.88
2023-03-13T12:00:25.766Z,6.18
2023-03-13T12:03:00.474Z,5.50
2023-03-13T12:05:34.306Z,4.10
2023-03-13T12:08:07.180Z,5.00
2023-03-13T12:10:40.710Z,5.53
2023-03-13T12:13:17.662Z,4.55
2023-03-13T12:15:49.593Z,10.45
2023-03-13T12:18:23.986Z,5.28
2023-03-13T12:20:58.457Z,7.25
2023-03-13T12:23:36.785Z,6.35
2023-03-13T12:26:11.268Z,5.32
2023-03-13T12:28:46.835Z,5.82
2023-03-13T12:31:23.392Z,5.45
2023-03-13T12:34:01.552Z,4.70
2023-03-13T12:36:35.655Z,4.28
2023-03-13T12:39:19.664Z,4.65
2023-03-13T12:41:57.453Z,5.03
2023-03-13T12:44:27.970Z,5.25
2023-03-13T12:47:06.237Z,4.75
2023-03-13T12:50:10.723Z,5.35
2023-03-13T12:53:18.526Z,4.75
2023-03-13T12:56:19.783Z,5.35
2023-03-13T12:58:52.289Z,4.28
2023-03-13T13:01:32.108Z,5.22
2023-03-13T13:04:03.435Z,4.90
2023-03-13T13:06:57.276Z,5.70
2023-03-13T13:09:27.795Z,6.40
2023-03-13T13:11:59.138Z,8.23
2023-03-13T13:15:12.660Z,13.05
2023-03-13T13:18:00.937Z,8.60
2023-03-13T13:20:47.545Z,21.45
2023-03-13T13:23:39.169Z,9.98
2023-03-13T13:26:47.056Z,41.63
2023-03-13T13:29:57.405Z,8.68
2023-03-13T13:32:49.616Z,9.00
2023-03-13T13:35:31.506Z,6.45
2023-03-13T13:38:23.782Z,6.30
2023-03-13T13:41:05.325Z,7.00
2023-03-13T13:43:35.820Z,6.55
2023-03-13T13:46:09.264Z,6.18
2023-03-13T13:48:40.141Z,7.25
2023-03-13T13:51:26.653Z,8.05
2023-03-13T13:54:01.761Z,6.45
2023-03-13T13:56:47.244Z,9.55
2023-03-13T13:59:36.279Z,6.53
2023-03-13T14:02:20.972Z,8.25
2023-03-13T14:04:54.922Z,24.30
2023-03-13T14:07:32.099Z,15.13
2023-03-13T14:10:07.797Z,8.73
2023-03-13T14:12:38.293Z,8.30
2023-03-13T14:15:16.129Z,6.88
2023-03-13T14:17:46.595Z,8.80
2023-03-13T14:20:30.987Z,8.60
2023-03-13T14:23:03.337Z,10.02
2023-03-13T14:25:44.816Z,8.50
2023-03-13T14:28:22.772Z,8.02
2023-03-13T14:30:53.076Z,6.30
2023-03-13T14:33:22.366Z,5.78
2023-03-13T14:35:51.509Z,9.60
2023-03-13T14:38:23.393Z,17.23
2023-03-13T14:40:53.663Z,9.25
2023-03-13T14:43:26.540Z,12.68
2023-03-13T14:45:55.578Z,24.42
2023-03-13T14:48:28.730Z,8.50
2023-03-13T14:51:14.828Z,8.38
2023-03-13T14:53:57.733Z,7.53
2023-03-13T14:56:34.625Z,7.50
2023-03-13T14:59:16.583Z,7.15
2023-03-13T15:01:45.696Z,7.03
2023-03-13T15:04:14.479Z,7.20
2023-03-13T15:06:43.459Z,7.17
2023-03-13T15:09:25.235Z,6.90
2023-03-13T15:12:01.207Z,7.32
2023-03-13T15:14:39.018Z,7.30
2023-03-13T15:17:15.401Z,7.75
2023-03-13T15:19:44.580Z,7.35
2023-03-13T15:22:15.810Z,6.82
2023-03-13T15:24:59.577Z,6.72
2023-03-13T15:27:34.290Z,6.35
2023-03-13T15:30:03.047Z,6.90
2023-03-13T15:32:34.727Z,7.67
2023-03-13T15:35:04.095Z,7.15
2023-03-13T15:37:33.124Z,7.10
2023-03-13T15:40:07.705Z,7.57
2023-03-13T15:42:36.335Z,7.03
2023-03-13T15:45:05.375Z,7.18
2023-03-13T15:47:34.266Z,6.65
2023-03-13T15:50:02.889Z,8.05
2023-03-13T15:52:32.468Z,7.20
2023-03-13T15:55:02.975Z,8.02
2023-03-13T15:57:31.645Z,9.07
2023-03-13T16:00:00.354Z,9.90
2023-03-13T16:02:29.033Z,7.85
2023-03-13T16:04:57.761Z,7.85
2023-03-13T16:07:26.418Z,8.20
2023-03-13T16:09:55.147Z,7.68
2023-03-13T16:12:25.299Z,7.22
2023-03-13T16:14:54.000Z,10.20
2023-03-13T16:17:23.284Z,8.10
2023-03-13T16:19:51.970Z,11.07
2023-03-13T16:22:20.616Z,10.57
2023-03-13T16:24:49.291Z,8.45
2023-03-13T16:27:18.996Z,7.43
2023-03-13T16:37:17.879Z,11.63
2023-03-13T16:39:47.401Z,9.30
2023-03-13T16:42:16.414Z,10.35
2023-03-13T16:44:45.084Z,11.70
2023-03-13T16:47:23.073Z,9.35
2023-03-13T16:49:51.866Z,12.00
2023-03-13T16:52:20.559Z,12.18
2023-03-13T16:54:49.354Z,11.90
2023-03-13T16:57:20.080Z,10.87
2023-03-13T16:59:48.803Z,8.35
2023-03-13T17:02:20.715Z,10.63
2023-03-13T17:04:49.879Z,9.40
2023-03-13T17:07:21.054Z,9.85
2023-03-13T17:09:50.138Z,9.82
2023-03-13T17:12:20.054Z,12.52
2023-03-13T17:14:48.962Z,10.98
2023-03-13T17:17:21.034Z,21.50
2023-03-13T17:19:49.822Z,10.50
2023-03-13T17:22:19.731Z,11.20
2023-03-13T17:24:49.270Z,13.00
2023-03-13T17:27:19.296Z,10.00
2023-03-13T17:29:47.989Z,45.50
2023-03-13T17:32:18.358Z,18.63
2023-03-13T17:34:47.303Z,37.97
2023-03-13T17:37:17.807Z,9.60
2023-03-13T17:39:47.006Z,22.75
2023-03-13T17:42:16.397Z,15.63
2023-03-13T17:44:45.117Z,6.63
2023-03-13T17:47:23.802Z,9.23
2023-03-13T17:49:52.481Z,7.70
2023-03-13T17:52:21.142Z,7.00
2023-03-13T17:54:49.809Z,6.97
2023-03-13T17:57:20.814Z,12.45
2023-03-13T17:59:50.546Z,8.98
2023-03-13T18:02:20.495Z,7.32
2023-03-13T18:04:49.849Z,7.30
2023-03-13T18:07:22.673Z,8.30
2023-03-13T18:09:51.340Z,8.25
2023-03-13T18:12:20.074Z,7.78
2023-03-13T18:14:48.918Z,6.25
2023-03-13T18:17:21.182Z,7.28
2023-03-13T18:19:50.559Z,6.50
2023-03-13T18:22:22.721Z,6.13
2023-03-13T18:24:51.413Z,6.10
2023-03-13T18:27:22.450Z,6.63
2023-03-13T18:29:51.241Z,6.10
2023-03-13T18:32:21.419Z,6.60
2023-03-13T18:34:50.028Z,6.65
2023-03-13T18:37:24.864Z,5.47
2023-03-13T18:39:55.804Z,6.20
2023-03-13T18:42:24.881Z,6.80
2023-03-13T18:44:54.320Z,7.57
2023-03-13T18:47:27.427Z,6.57
2023-03-13T18:49:56.046Z,6.70
2023-03-13T18:52:24.562Z,7.05
2023-03-13T18:54:53.109Z,6.40
2023-03-13T18:57:21.936Z,6.80
2023-03-13T18:59:50.523Z,6.97
2023-03-13T19:02:21.923Z,6.78
2023-03-13T19:04:53.712Z,7.00
2023-03-13T19:07:26.798Z,6.95
2023-03-13T19:09:55.642Z,6.63
2023-03-13T19:12:24.342Z,7.03
2023-03-13T19:14:55.003Z,8.82
2023-03-13T19:17:33.038Z,25.35
2023-03-13T19:20:04.486Z,11.93
2023-03-13T19:22:33.257Z,14.23
2023-03-13T19:25:02.029Z,11.45
2023-03-13T19:27:31.609Z,12.10
2023-03-13T19:30:00.314Z,9.88
2023-03-13T19:32:30.974Z,14.50
2023-03-13T19:34:59.587Z,11.65
2023-03-13T19:37:29.690Z,11.10
2023-03-13T19:39:58.309Z,10.13
2023-03-13T19:42:28.628Z,9.13
2023-03-13T19:44:57.179Z,10.45
2023-03-13T19:47:25.854Z,10.88
2023-03-13T19:49:54.541Z,10.85
2023-03-13T19:52:24.408Z,12.95
2023-03-13T19:54:55.922Z,10.07
2023-03-13T19:57:24.747Z,12.45
2023-03-13T19:59:53.379Z,10.60
2023-03-13T20:02:22.140Z,14.02
2023-03-13T20:04:50.915Z,13.10
2023-03-13T20:07:19.494Z,27.05
2023-03-13T20:09:48.074Z,13.38
2023-03-13T20:12:18.608Z,12.07
2023-03-13T20:14:47.418Z,10.82
2023-03-13T20:17:16.138Z,11.90
2023-03-13T20:19:44.818Z,15.15
2023-03-13T20:22:13.811Z,15.07
2023-03-13T20:24:42.516Z,10.02
2023-03-13T20:27:11.248Z,12.13
2023-03-13T20:29:41.783Z,16.27
2023-03-13T20:32:11.488Z,17.45
2023-03-13T20:37:08.756Z,17.05
2023-03-13T20:39:40.377Z,8.65
2023-03-13T20:42:09.577Z,10.73
2023-03-13T20:44:38.909Z,8.75
2023-03-13T20:47:09.787Z,13.63
2023-03-13T20:49:41.172Z,8.60
2023-03-13T20:52:09.938Z,14.32
2023-03-13T20:54:38.876Z,13.95
2023-03-13T20:57:08.723Z,31.08
2023-03-13T20:59:37.527Z,13.07
2023-03-13T21:02:06.702Z,10.30
2023-03-13T21:04:36.847Z,13.05
2023-03-13T21:07:05.763Z,14.88
2023-03-13T21:09:35.041Z,23.73
2023-03-13T21:12:05.741Z,25.27
2023-03-13T21:14:37.382Z,18.73
2023-03-13T21:17:06.335Z,27.55
2023-03-13T21:19:36.888Z,14.07
2023-03-13T21:22:05.569Z,27.60
2023-03-13T21:24:34.343Z,21.25
2023-03-13T21:27:03.382Z,15.95
2023-03-13T21:29:32.449Z,32.37
2023-03-13T21:32:01.113Z,23.63
2023-03-13T21:34:29.917Z,17.92
2023-03-13T21:36:59.994Z,13.40
2023-03-13T21:39:28.778Z,29.45
2023-03-13T21:41:57.321Z,25.17
2023-03-13T21:44:27.374Z,36.30
2023-03-13T21:46:56.105Z,17.38
2023-03-13T21:49:24.930Z,24.98
2023-03-13T21:51:57.538Z,43.65
2023-03-13T21:54:27.962Z,19.33
2023-03-13T21:56:57.302Z,13.70
2023-03-13T21:59:30.480Z,13.77
2023-03-13T22:01:59.050Z,34.30
2023-03-13T22:04:27.849Z,31.50
2023-03-13T22:06:56.732Z,24.47
2023-03-13T22:09:25.494Z,19.08
2023-03-13T22:11:55.469Z,14.25
2023-03-13T22:14:25.608Z,15.60
2023-03-13T22:16:54.286Z,13.27
2023-03-13T22:19:22.886Z,17.48
2023-03-13T22:21:51.639Z,25.35
2023-03-13T22:24:20.237Z,22.97
2023-03-13T22:26:48.995Z,25.75
2023-03-13T22:29:18.993Z,42.40
2023-03-13T22:31:49.229Z,18.10
2023-03-13T22:34:19.618Z,15.45
2023-03-13T22:36:48.833Z,19.35
2023-03-13T22:39:18.663Z,14.75
2023-03-13T22:42:07.700Z,26.70
2023-03-13T22:44:43.130Z,15.65
2023-03-13T22:47:12.057Z,27.50
2023-03-13T22:49:44.481Z,23.63
2023-03-13T22:52:13.208Z,24.92
2023-03-13T22:54:43.904Z,21.20
2023-03-13T22:57:12.501Z,27.80
2023-03-13T22:59:42.453Z,22.48
2023-03-13T23:02:11.038Z,25.55
2023-03-13T23:04:39.663Z,24.75
2023-03-13T23:07:08.308Z,37.60
2023-03-13T23:09:36.907Z,17.38
2023-03-13T23:12:05.824Z,30.08
2023-03-13T23:14:34.571Z,39.13
2023-03-13T23:17:04.734Z,22.70
2023-03-13T23:19:38.279Z,41.05
2023-03-13T23:22:06.908Z,22.02
2023-03-13T23:24:37.104Z,32.50
2023-03-13T23:27:05.964Z,36.38
2023-03-13T23:29:34.605Z,28.07
2023-03-13T23:32:04.778Z,22.75
2023-03-13T23:34:33.517Z,33.35
2023-03-13T23:37:03.140Z,34.55
2023-03-13T23:39:32.357Z,18.42
2023-03-13T23:42:00.951Z,20.10
2023-03-13T23:44:31.994Z,26.52
2023-03-13T23:47:00.675Z,23.30
2023-03-13T23:49:32.011Z,22.52
2023-03-13T23:52:03.400Z,14.50
2023-03-13T23:57:25.091Z,26.88
2023-03-13T23:59:55.726Z,24.88
